KAPA

Centennial Airport

Denver, Colorado, USA
METAR KAPA 160453Z 14003KT 10SM CLR M02/M08 A3035 RMK AO2 SLP310 T10171078
Observed Flight Rules
Oct-16 @ 04:53 UTC (53 minutes ago) Visual Flight Rules
Wind Visibility Clouds
140° at 3 knots 10 miles
  • Clear skies
Temperatures Readings
Current -2°C / 28°F
Dewpoint -8°C / 18°F
Humidity 64%
Altimeter 30.35" Hg
Pressure 1031 hPa
Elevation 1775
METAR KAPA 160453Z 14003KT 10SM CLR M02/M08 A3035 RMK AO2 SLP310 T10171078
Observed Flight Rules
Oct-16 @ 04:53 UTC
(53 minutes ago)
VFR
Wind Visibility
140° at 3 knots 10 miles
Clouds
  • Clear skies
Temperature Dewpoint
-2°C / 28°F -8°C / 18°F
Humidity Altimeter Pressure
64% 30.35" Hg 1031 hPa